createdAt,value
2023-01-29T00:02:08.231Z,-3.29
2023-01-29T00:04:34.898Z,-3.35
2023-01-29T00:07:01.567Z,-3.39
2023-01-29T00:09:29.109Z,-3.52
2023-01-29T00:11:55.791Z,-3.63
2023-01-29T00:14:22.405Z,-3.53
2023-01-29T00:16:49.152Z,-3.63
2023-01-29T00:19:15.743Z,-3.67
2023-01-29T00:21:42.407Z,-3.73
2023-01-29T00:24:09.023Z,-3.74
2023-01-29T00:26:35.760Z,-3.70
2023-01-29T00:29:02.880Z,-3.71
2023-01-29T00:31:29.970Z,-3.75
2023-01-29T00:33:57.547Z,-3.77
2023-01-29T00:36:26.259Z,-3.80
2023-01-29T00:39:00.748Z,-3.94
2023-01-29T00:41:51.321Z,-3.96
2023-01-29T00:44:37.259Z,-3.98
2023-01-29T00:47:04.728Z,-4.04
2023-01-29T00:49:31.470Z,-4.09
2023-01-29T00:52:16.798Z,-4.09
2023-01-29T00:54:43.547Z,-4.09
2023-01-29T00:57:10.222Z,-4.21
2023-01-29T00:59:36.813Z,-4.26
2023-01-29T01:02:22.028Z,-4.28
2023-01-29T01:04:48.739Z,-4.25
2023-01-29T01:07:15.275Z,-4.21
2023-01-29T01:10:01.139Z,-4.22
2023-01-29T01:12:28.502Z,-4.30
2023-01-29T01:14:55.233Z,-4.33
2023-01-29T01:17:22.050Z,-4.38
2023-01-29T01:19:48.886Z,-4.33
2023-01-29T01:22:15.578Z,-4.34
2023-01-29T01:24:42.231Z,-4.36
2023-01-29T01:27:09.113Z,-4.33
2023-01-29T01:29:35.861Z,-4.35
2023-01-29T01:32:02.698Z,-4.35
2023-01-29T01:34:29.431Z,-4.35
2023-01-29T01:36:56.416Z,-4.35
2023-01-29T01:39:24.823Z,-4.32
2023-01-29T01:41:53.703Z,-4.34
2023-01-29T01:44:51.352Z,-4.40
2023-01-29T01:47:22.530Z,-4.39
2023-01-29T01:49:49.324Z,-4.40
2023-01-29T01:52:17.801Z,-4.36
2023-01-29T01:54:45.252Z,-4.35
2023-01-29T01:57:25.338Z,-4.28
2023-01-29T02:00:12.980Z,-4.19
2023-01-29T02:03:01.045Z,-4.17
2023-01-29T02:05:48.049Z,-4.12
2023-01-29T02:08:33.692Z,-4.05
2023-01-29T02:11:01.368Z,-4.00
2023-01-29T02:13:27.881Z,-3.92
2023-01-29T02:15:54.453Z,-3.97
2023-01-29T02:18:22.205Z,-3.88
2023-01-29T02:21:08.086Z,-3.86
2023-01-29T02:24:11.609Z,-3.94
2023-01-29T02:27:01.575Z,-3.95
2023-01-29T02:29:43.778Z,-4.08
2023-01-29T02:32:30.173Z,-4.00
2023-01-29T02:35:32.306Z,-4.11
2023-01-29T02:38:18.318Z,-4.12
2023-01-29T02:40:50.752Z,-4.16
2023-01-29T02:43:31.810Z,-4.18
2023-01-29T02:46:10.951Z,-4.18
2023-01-29T02:48:43.374Z,-4.12
2023-01-29T02:51:43.613Z,-3.95
2023-01-29T02:54:25.196Z,-4.06
2023-01-29T02:56:56.176Z,-4.15
2023-01-29T02:59:50.126Z,-4.15
2023-01-29T03:02:29.195Z,-4.11
2023-01-29T03:05:01.569Z,-4.08
2023-01-29T03:07:42.655Z,-4.16
2023-01-29T03:10:32.103Z,-4.13
2023-01-29T03:13:05.316Z,-4.12
2023-01-29T03:15:42.547Z,-4.08
2023-01-29T03:18:14.039Z,-4.02
2023-01-29T03:20:48.443Z,-4.16
2023-01-29T03:23:24.252Z,-4.18
2023-01-29T03:26:13.228Z,-4.06
2023-01-29T03:29:00.925Z,-4.01
2023-01-29T03:31:47.373Z,-3.97
2023-01-29T03:34:24.295Z,-3.98
2023-01-29T03:36:58.282Z,-3.90
2023-01-29T03:39:30.428Z,-3.87
2023-01-29T03:42:10.706Z,-3.97
2023-01-29T03:45:05.439Z,-3.90
2023-01-29T03:47:41.451Z,-3.88
2023-01-29T03:50:33.091Z,-3.88
2023-01-29T03:53:08.530Z,-3.97
2023-01-29T03:56:02.137Z,-3.92
2023-01-29T03:58:40.242Z,-3.88
2023-01-29T04:01:17.633Z,-3.88
2023-01-29T04:03:56.886Z,-3.93
2023-01-29T04:06:29.844Z,-3.84
2023-01-29T04:09:30.646Z,-3.92
2023-01-29T04:12:07.507Z,-4.05
2023-01-29T04:14:34.604Z,-4.06
2023-01-29T04:17:08.208Z,-3.94
2023-01-29T04:19:35.637Z,-3.93
2023-01-29T04:22:17.457Z,-4.05
2023-01-29T04:24:47.725Z,-4.00
2023-01-29T04:27:31.396Z,-3.93
2023-01-29T04:30:09.900Z,-3.84
2023-01-29T04:32:50.367Z,-3.80
2023-01-29T04:35:31.446Z,-3.79
2023-01-29T04:38:13.235Z,-3.87
2023-01-29T04:40:51.399Z,-3.89
2023-01-29T04:43:29.018Z,-3.91
2023-01-29T04:46:09.724Z,-3.95
2023-01-29T04:49:12.089Z,-3.92
2023-01-29T04:52:06.176Z,-3.93
2023-01-29T04:54:50.225Z,-3.93
2023-01-29T04:57:27.177Z,-3.91
2023-01-29T05:00:00.169Z,-3.90
2023-01-29T05:02:28.270Z,-3.92
2023-01-29T05:04:57.572Z,-3.96
2023-01-29T05:07:26.839Z,-3.93
2023-01-29T05:09:53.676Z,-3.96
2023-01-29T05:12:21.505Z,-3.86
2023-01-29T05:14:49.865Z,-3.95
2023-01-29T05:17:20.183Z,-4.00
2023-01-29T05:19:47.599Z,-3.97
2023-01-29T05:22:17.835Z,-3.88
2023-01-29T05:24:44.987Z,-3.88
2023-01-29T05:27:48.712Z,-3.84
2023-01-29T05:30:15.850Z,-3.96
2023-01-29T05:32:42.647Z,-3.90
2023-01-29T05:35:09.424Z,-4.01
2023-01-29T05:37:36.165Z,-4.04
2023-01-29T05:40:02.780Z,-4.00
2023-01-29T05:42:29.477Z,-4.01
2023-01-29T05:44:56.071Z,-4.03
2023-01-29T05:47:22.755Z,-3.98
2023-01-29T05:49:49.378Z,-4.00
2023-01-29T05:52:15.947Z,-3.98
2023-01-29T05:54:42.560Z,-4.02
2023-01-29T05:57:09.285Z,-3.99
2023-01-29T05:59:35.841Z,-4.01
2023-01-29T06:02:02.528Z,-4.04
2023-01-29T06:04:29.147Z,-4.13
2023-01-29T06:06:55.809Z,-4.18
2023-01-29T06:09:22.389Z,-4.17
2023-01-29T06:11:48.923Z,-4.12
2023-01-29T06:14:15.573Z,-4.12
2023-01-29T06:16:42.188Z,-4.10
2023-01-29T06:19:08.775Z,-4.04
2023-01-29T06:21:35.461Z,-4.09
2023-01-29T06:24:02.118Z,-4.08
2023-01-29T06:26:28.828Z,-4.13
2023-01-29T06:28:55.609Z,-4.11
2023-01-29T06:31:37.471Z,-4.08
2023-01-29T06:34:05.760Z,-4.01
2023-01-29T06:36:32.495Z,-4.00
2023-01-29T06:38:59.275Z,-3.99
2023-01-29T06:41:26.539Z,-4.09
2023-01-29T06:43:53.180Z,-4.16
2023-01-29T06:46:19.865Z,-4.14
2023-01-29T06:48:46.425Z,-4.22
2023-01-29T06:51:13.103Z,-4.14
2023-01-29T06:53:40.151Z,-4.15
2023-01-29T06:56:07.561Z,-4.24
2023-01-29T06:58:36.599Z,-4.18
2023-01-29T07:01:13.875Z,-4.12
2023-01-29T07:03:52.189Z,-4.13
2023-01-29T07:06:19.491Z,-4.19
2023-01-29T07:08:46.141Z,-4.24
2023-01-29T07:11:12.942Z,-4.21
2023-01-29T07:13:39.652Z,-4.16
2023-01-29T07:16:07.256Z,-4.21
2023-01-29T07:18:34.008Z,-4.16
2023-01-29T07:21:04.730Z,-4.08
2023-01-29T07:23:31.460Z,-4.03
2023-01-29T07:26:02.523Z,-4.15
2023-01-29T07:28:29.242Z,-4.07
2023-01-29T07:30:58.102Z,-4.08
2023-01-29T07:33:25.467Z,-3.95
2023-01-29T07:35:52.464Z,-3.94
2023-01-29T07:38:19.192Z,-3.92
2023-01-29T07:40:46.206Z,-3.77
2023-01-29T07:43:12.736Z,-3.62
2023-01-29T07:45:40.297Z,-3.44
2023-01-29T07:48:09.973Z,-3.38
2023-01-29T07:50:36.692Z,-3.47
2023-01-29T07:53:04.028Z,-3.42
2023-01-29T07:55:31.459Z,-3.49
2023-01-29T07:58:01.332Z,-3.43
2023-01-29T08:00:28.580Z,-3.35
2023-01-29T08:03:02.475Z,-3.33
2023-01-29T08:05:29.187Z,-3.19
2023-01-29T08:08:06.156Z,-3.11
2023-01-29T08:10:35.382Z,-3.05
2023-01-29T08:13:03.010Z,-3.08
2023-01-29T08:15:30.246Z,-2.97
2023-01-29T08:20:43.579Z,-2.77
2023-01-29T08:23:15.349Z,-2.70
2023-01-29T08:25:42.349Z,-2.52
2023-01-29T08:28:10.164Z,-2.44
2023-01-29T08:30:38.215Z,-2.26
2023-01-29T08:33:04.888Z,-2.15
2023-01-29T08:35:31.873Z,-2.20
2023-01-29T08:38:00.580Z,-2.08
2023-01-29T08:40:28.891Z,-2.08
2023-01-29T08:43:02.978Z,-2.10
2023-01-29T08:45:34.051Z,-2.03
2023-01-29T08:48:00.960Z,-2.01
2023-01-29T08:50:27.766Z,-2.10
2023-01-29T08:52:59.372Z,-2.11
2023-01-29T08:55:26.638Z,-2.16
2023-01-29T08:57:53.644Z,-2.23
2023-01-29T09:00:20.930Z,-2.30
2023-01-29T09:02:47.657Z,-2.14
2023-01-29T09:05:14.926Z,-2.05
2023-01-29T09:07:41.732Z,-2.34
2023-01-29T09:10:09.224Z,-2.19
2023-01-29T09:12:35.801Z,-2.22
2023-01-29T09:15:02.456Z,-2.18
2023-01-29T09:17:29.101Z,-2.13
2023-01-29T09:19:57.157Z,-2.20
2023-01-29T09:22:23.707Z,-2.12
2023-01-29T09:24:50.379Z,-2.18
2023-01-29T09:27:17.057Z,-2.08
2023-01-29T09:29:43.757Z,-2.02
2023-01-29T09:32:10.502Z,-1.95
2023-01-29T09:34:37.360Z,-1.92
2023-01-29T09:37:04.195Z,-1.86
2023-01-29T09:39:30.701Z,-1.91
2023-01-29T09:42:03.643Z,-1.84
2023-01-29T09:45:01.819Z,-1.84
2023-01-29T09:47:30.058Z,-1.71
2023-01-29T09:50:19.135Z,-1.64
2023-01-29T09:52:53.827Z,-1.47
2023-01-29T09:55:39.599Z,-1.41
2023-01-29T09:58:19.668Z,-1.31
2023-01-29T10:00:53.707Z,-1.14
2023-01-29T10:03:55.597Z,-0.86
2023-01-29T10:06:44.355Z,-0.93
2023-01-29T10:09:30.041Z,-1.04
2023-01-29T10:12:15.376Z,-0.91
2023-01-29T10:15:03.652Z,-0.99
2023-01-29T10:18:12.336Z,-0.78
2023-01-29T10:21:27.260Z,-0.98
2023-01-29T10:24:04.151Z,-1.07
2023-01-29T10:26:34.366Z,-1.07
2023-01-29T10:29:02.830Z,-0.97
2023-01-29T10:31:33.343Z,-1.06
2023-01-29T10:34:20.352Z,-0.92
2023-01-29T10:36:48.777Z,-0.94
2023-01-29T10:39:26.644Z,-1.04
2023-01-29T10:42:28.416Z,-0.98
2023-01-29T10:44:58.098Z,-0.87
2023-01-29T10:47:48.454Z,-0.85
2023-01-29T10:50:37.136Z,-0.79
2023-01-29T10:53:22.104Z,-0.69
2023-01-29T10:55:51.464Z,-0.66
2023-01-29T10:58:34.211Z,-0.50
2023-01-29T11:01:01.626Z,-0.43
2023-01-29T11:03:31.061Z,-0.33
2023-01-29T11:06:25.521Z,-0.43
2023-01-29T11:08:59.098Z,-0.49
2023-01-29T11:11:39.631Z,-0.29
2023-01-29T11:14:13.454Z,-0.19
2023-01-29T11:16:42.813Z,-0.21
2023-01-29T11:19:09.550Z,-0.17
2023-01-29T11:22:12.858Z,-0.21
2023-01-29T11:24:39.557Z,-0.18
2023-01-29T11:27:23.770Z,-0.22
2023-01-29T11:29:50.519Z,-0.06
2023-01-29T11:32:29.954Z,-0.03
2023-01-29T11:34:56.591Z,0.10
2023-01-29T11:37:23.746Z,0.18
2023-01-29T11:39:50.786Z,0.23
2023-01-29T11:42:22.666Z,0.24
2023-01-29T11:44:50.007Z,0.28
2023-01-29T11:47:19.078Z,0.50
2023-01-29T11:49:52.604Z,0.34
2023-01-29T11:52:23.027Z,0.33
2023-01-29T11:55:03.917Z,0.32
2023-01-29T11:57:35.919Z,0.34
2023-01-29T12:00:18.057Z,0.43
2023-01-29T12:03:16.441Z,0.47
2023-01-29T12:05:56.245Z,0.40
2023-01-29T12:08:24.076Z,0.33
2023-01-29T12:10:51.373Z,0.43
2023-01-29T12:13:28.299Z,0.43
2023-01-29T12:16:15.746Z,0.37
2023-01-29T12:18:48.065Z,0.49
2023-01-29T12:21:30.213Z,0.48
2023-01-29T12:24:07.047Z,0.58
2023-01-29T12:26:38.632Z,0.59
2023-01-29T12:29:37.577Z,0.65
2023-01-29T12:32:29.465Z,0.72
2023-01-29T12:35:06.513Z,0.91
2023-01-29T12:38:01.030Z,0.88
2023-01-29T12:40:32.292Z,0.82
2023-01-29T12:43:05.987Z,0.82
2023-01-29T12:45:36.489Z,0.74
2023-01-29T12:48:08.481Z,0.72
2023-01-29T12:50:38.538Z,0.71
2023-01-29T12:53:29.905Z,0.66
2023-01-29T12:56:05.341Z,0.86
2023-01-29T12:58:54.358Z,1.03
2023-01-29T13:01:31.366Z,0.98
2023-01-29T13:04:01.657Z,0.96
2023-01-29T13:07:03.069Z,1.03
2023-01-29T13:09:33.428Z,1.00
2023-01-29T13:12:04.538Z,0.83
2023-01-29T13:15:02.708Z,0.89
2023-01-29T13:17:51.159Z,0.85
2023-01-29T13:20:23.436Z,1.01
2023-01-29T13:22:52.729Z,1.08
2023-01-29T13:25:20.808Z,1.09
2023-01-29T13:27:48.682Z,1.00
2023-01-29T13:30:28.830Z,1.01
2023-01-29T13:33:09.593Z,0.87
2023-01-29T13:35:43.073Z,0.99
2023-01-29T13:38:25.549Z,0.94
2023-01-29T13:41:02.992Z,0.76
2023-01-29T13:43:36.440Z,0.72
2023-01-29T13:46:14.859Z,0.68
2023-01-29T13:48:44.507Z,0.73
2023-01-29T13:51:17.097Z,0.56
2023-01-29T13:53:52.283Z,0.59
2023-01-29T13:56:43.222Z,0.63
2023-01-29T13:59:23.467Z,0.65
2023-01-29T14:01:50.048Z,0.62
2023-01-29T14:04:19.741Z,0.53
2023-01-29T14:06:49.750Z,0.50
2023-01-29T14:09:37.450Z,0.34
2023-01-29T14:12:25.013Z,0.37
2023-01-29T14:15:04.379Z,0.37
2023-01-29T14:17:31.189Z,0.39
2023-01-29T14:20:19.358Z,0.24
2023-01-29T14:22:56.672Z,0.27
2023-01-29T14:25:29.688Z,0.28
2023-01-29T14:27:58.924Z,0.41
2023-01-29T14:30:30.331Z,0.45
2023-01-29T14:32:57.309Z,0.42
2023-01-29T14:35:32.828Z,0.47
2023-01-29T14:38:06.414Z,0.40
2023-01-29T14:40:36.179Z,0.33
2023-01-29T14:43:19.980Z,0.38
2023-01-29T14:45:49.967Z,0.37
2023-01-29T14:48:36.642Z,0.39
2023-01-29T14:51:10.894Z,0.38
2023-01-29T14:53:59.371Z,0.36
2023-01-29T14:56:43.551Z,0.38
2023-01-29T14:59:30.662Z,0.38
2023-01-29T15:02:02.209Z,0.21
2023-01-29T15:04:46.610Z,0.25
2023-01-29T15:07:29.763Z,0.26
2023-01-29T15:10:20.991Z,0.16
2023-01-29T15:12:55.942Z,0.16
2023-01-29T15:15:44.663Z,0.07
2023-01-29T15:18:20.615Z,0.04
2023-01-29T15:20:47.804Z,-0.08
2023-01-29T15:23:28.576Z,-0.12
2023-01-29T15:26:04.304Z,-0.11
2023-01-29T15:28:33.164Z,-0.03
2023-01-29T15:31:04.478Z,-0.08
2023-01-29T15:33:33.629Z,-0.14
2023-01-29T15:36:07.372Z,-0.20
2023-01-29T15:38:35.207Z,-0.32
2023-01-29T15:41:17.750Z,-0.29
2023-01-29T15:43:47.512Z,-0.44
2023-01-29T15:46:24.943Z,-0.55
2023-01-29T15:48:53.474Z,-0.55
2023-01-29T15:51:22.522Z,-0.62
2023-01-29T15:54:00.814Z,-0.64
2023-01-29T15:56:59.804Z,-0.67
2023-01-29T15:59:31.052Z,-0.68
2023-01-29T16:01:58.202Z,-0.64
2023-01-29T16:04:29.034Z,-0.77
2023-01-29T16:06:58.209Z,-0.73
2023-01-29T16:09:26.796Z,-0.66
2023-01-29T16:11:57.567Z,-0.71
2023-01-29T16:14:25.854Z,-0.81
2023-01-29T16:16:52.945Z,-0.89
2023-01-29T16:19:26.039Z,-0.91
2023-01-29T16:21:58.366Z,-1.03
2023-01-29T16:24:26.081Z,-0.99
2023-01-29T16:26:59.381Z,-1.08
2023-01-29T16:29:34.008Z,-1.17
2023-01-29T16:32:02.932Z,-1.15
2023-01-29T16:34:37.567Z,-1.22
2023-01-29T16:37:18.834Z,-1.31
2023-01-29T16:39:48.716Z,-1.43
2023-01-29T16:42:20.066Z,-1.59
2023-01-29T16:45:02.677Z,-1.62
2023-01-29T16:47:37.785Z,-1.68
2023-01-29T16:50:23.095Z,-1.73
2023-01-29T16:53:07.165Z,-1.86
2023-01-29T16:55:38.357Z,-1.88
2023-01-29T16:58:30.806Z,-1.87
2023-01-29T17:01:11.553Z,-1.93
2023-01-29T17:03:40.836Z,-2.06
2023-01-29T17:06:18.713Z,-2.21
2023-01-29T17:08:45.854Z,-2.31
2023-01-29T17:11:23.156Z,-2.42
2023-01-29T17:13:49.837Z,-2.61
2023-01-29T17:16:26.249Z,-2.66
2023-01-29T17:18:53.063Z,-2.69
2023-01-29T17:21:19.749Z,-2.69
2023-01-29T17:23:46.452Z,-2.78
2023-01-29T17:26:14.994Z,-2.75
2023-01-29T17:28:41.963Z,-2.77
2023-01-29T17:31:09.177Z,-2.92
2023-01-29T17:33:38.275Z,-2.93
2023-01-29T17:36:05.350Z,-3.03
2023-01-29T17:38:32.775Z,-3.07
2023-01-29T17:41:06.320Z,-3.01
2023-01-29T17:43:33.036Z,-3.10
2023-01-29T17:45:59.699Z,-2.98
2023-01-29T17:48:28.317Z,-3.08
2023-01-29T17:50:58.751Z,-3.06
2023-01-29T17:53:30.516Z,-3.13
2023-01-29T17:56:03.004Z,-3.15
2023-01-29T17:58:29.594Z,-3.19
2023-01-29T18:00:56.232Z,-3.25
2023-01-29T18:03:23.375Z,-3.28
2023-01-29T18:05:50.439Z,-3.31
2023-01-29T18:08:26.688Z,-3.35
2023-01-29T18:10:53.198Z,-3.24
2023-01-29T18:13:20.187Z,-3.35
2023-01-29T18:15:46.939Z,-3.37
2023-01-29T18:18:16.354Z,-3.25
2023-01-29T18:20:43.171Z,-3.33
2023-01-29T18:23:09.828Z,-3.45
2023-01-29T18:25:36.432Z,-3.43
2023-01-29T18:28:04.443Z,-3.43
2023-01-29T18:30:31.514Z,-3.49
2023-01-29T18:32:58.357Z,-3.49
2023-01-29T18:35:26.042Z,-3.48
2023-01-29T18:37:52.693Z,-3.41
2023-01-29T18:40:19.453Z,-3.44
2023-01-29T18:42:46.942Z,-3.53
2023-01-29T18:45:14.223Z,-3.60
2023-01-29T18:47:41.217Z,-3.65
2023-01-29T18:50:08.637Z,-3.72
2023-01-29T18:52:35.469Z,-3.76
2023-01-29T18:55:02.100Z,-3.74
2023-01-29T18:58:26.830Z,-3.84
2023-01-29T19:00:15.905Z,-3.98
2023-01-29T19:02:43.097Z,-4.00
2023-01-29T19:05:09.899Z,-3.97
2023-01-29T19:07:37.034Z,-4.02
2023-01-29T19:10:06.955Z,-4.11
2023-01-29T19:12:34.545Z,-4.09
2023-01-29T19:15:01.264Z,-4.08
2023-01-29T19:17:28.277Z,-4.01
2023-01-29T19:19:56.641Z,-4.00
2023-01-29T19:22:23.268Z,-4.01
2023-01-29T19:24:50.003Z,-4.01
2023-01-29T19:27:16.601Z,-3.87
2023-01-29T19:29:43.252Z,-3.87
2023-01-29T19:32:09.992Z,-3.77
2023-01-29T19:34:36.936Z,-3.69
2023-01-29T19:37:03.966Z,-3.64
2023-01-29T19:39:34.051Z,-3.57
2023-01-29T19:42:01.681Z,-3.68
2023-01-29T19:44:28.508Z,-3.51
2023-01-29T19:46:55.241Z,-3.57
2023-01-29T19:49:22.049Z,-3.56
2023-01-29T19:51:49.160Z,-3.60
2023-01-29T19:54:15.982Z,-3.58
2023-01-29T19:56:42.610Z,-3.54
2023-01-29T19:59:10.946Z,-3.56
2023-01-29T20:01:37.877Z,-3.54
2023-01-29T20:04:04.961Z,-3.64
2023-01-29T20:06:31.514Z,-3.77
2023-01-29T20:08:58.549Z,-3.81
2023-01-29T20:11:25.494Z,-3.83
2023-01-29T20:13:52.856Z,-3.85
2023-01-29T20:16:20.483Z,-3.82
2023-01-29T20:18:47.390Z,-3.82
2023-01-29T20:21:17.232Z,-3.84
2023-01-29T20:23:45.879Z,-3.80
2023-01-29T20:26:15.195Z,-3.79
2023-01-29T20:28:42.545Z,-3.73
2023-01-29T20:31:09.989Z,-3.66
2023-01-29T20:33:39.148Z,-3.56
2023-01-29T20:36:08.144Z,-3.47
2023-01-29T20:38:34.901Z,-3.30
2023-01-29T20:41:10.590Z,-3.20
2023-01-29T20:43:37.426Z,-3.13
2023-01-29T20:46:04.428Z,-3.16
2023-01-29T20:48:32.113Z,-3.02
2023-01-29T20:51:10.109Z,-3.00
2023-01-29T20:53:37.243Z,-2.99
2023-01-29T20:56:04.970Z,-2.93
2023-01-29T20:58:32.053Z,-2.94
2023-01-29T21:00:58.985Z,-2.85
2023-01-29T21:03:25.645Z,-2.70
2023-01-29T21:05:52.446Z,-2.61
2023-01-29T21:08:19.059Z,-2.67
2023-01-29T21:10:46.126Z,-2.68
2023-01-29T21:13:12.916Z,-2.54
2023-01-29T21:15:39.565Z,-2.61
2023-01-29T21:18:07.002Z,-2.55
2023-01-29T21:20:33.636Z,-2.52
2023-01-29T21:23:01.232Z,-2.44
2023-01-29T21:25:27.834Z,-2.48
2023-01-29T21:27:54.419Z,-2.44
2023-01-29T21:30:21.564Z,-2.39
2023-01-29T21:32:48.337Z,-2.46
2023-01-29T21:35:15.233Z,-2.46
2023-01-29T21:37:42.483Z,-2.31
2023-01-29T21:40:10.057Z,-2.35
2023-01-29T21:42:54.945Z,-2.46
2023-01-29T21:45:21.650Z,-2.37
2023-01-29T21:47:48.383Z,-2.37
2023-01-29T21:50:15.582Z,-2.43
2023-01-29T21:52:42.540Z,-2.33
2023-01-29T21:55:09.550Z,-2.39
2023-01-29T21:57:36.238Z,-2.32
2023-01-29T22:00:03.107Z,-2.28
2023-01-29T22:02:32.292Z,-2.19
2023-01-29T22:05:18.761Z,-2.28
2023-01-29T22:07:47.218Z,-2.32
2023-01-29T22:10:14.495Z,-2.35
2023-01-29T22:12:41.611Z,-2.31
2023-01-29T22:15:09.456Z,-2.27
2023-01-29T22:17:36.268Z,-2.28
2023-01-29T22:20:03.139Z,-2.39
2023-01-29T22:22:29.895Z,-2.35
2023-01-29T22:24:58.393Z,-2.44
2023-01-29T22:27:25.190Z,-2.43
2023-01-29T22:29:51.997Z,-2.48
2023-01-29T22:32:18.803Z,-2.38
2023-01-29T22:34:45.769Z,-2.38
2023-01-29T22:37:12.408Z,-2.38
2023-01-29T22:39:39.126Z,-2.38
2023-01-29T22:42:05.690Z,-2.37
2023-01-29T22:44:32.301Z,-2.37
2023-01-29T22:46:59.182Z,-2.39
2023-01-29T22:49:26.658Z,-2.36
2023-01-29T22:52:10.181Z,-2.39
2023-01-29T22:54:43.715Z,-2.23
2023-01-29T22:57:12.193Z,-2.16
2023-01-29T22:59:39.427Z,-2.09
2023-01-29T23:02:06.793Z,-2.04
2023-01-29T23:04:33.716Z,-2.07
2023-01-29T23:07:00.393Z,-2.01
2023-01-29T23:09:27.226Z,-1.95
2023-01-29T23:11:53.817Z,-1.99
2023-01-29T23:14:20.477Z,-1.99
2023-01-29T23:16:47.112Z,-2.07
2023-01-29T23:19:13.938Z,-2.03
2023-01-29T23:21:40.539Z,-2.12
2023-01-29T23:24:08.375Z,-2.15
2023-01-29T23:26:53.670Z,-2.18
2023-01-29T23:29:20.396Z,-2.00
2023-01-29T23:31:47.182Z,-2.07
2023-01-29T23:34:14.383Z,-2.01
2023-01-29T23:36:41.656Z,-2.01
2023-01-29T23:39:08.432Z,-1.85
2023-01-29T23:41:36.024Z,-1.82
2023-01-29T23:44:02.684Z,-1.67
2023-01-29T23:46:29.433Z,-1.60
2023-01-29T23:48:56.113Z,-1.56
2023-01-29T23:51:22.733Z,-1.43
2023-01-29T23:53:49.521Z,-1.48
2023-01-29T23:56:16.212Z,-1.44
2023-01-29T23:58:43.036Z,-1.35
